createdAt,value
2016-07-11T13:24:39.692Z,23.53
2016-07-11T13:25:39.640Z,23.53
2016-07-11T13:26:39.621Z,23.57
2016-07-11T13:27:39.611Z,23.59
2016-07-11T13:28:39.605Z,23.53
2016-07-11T13:29:39.606Z,23.57
2016-07-11T13:30:39.604Z,23.6
2016-07-11T13:31:39.592Z,23.57
2016-07-11T13:32:39.587Z,23.47
2016-07-11T13:33:39.581Z,23.59
2016-07-11T13:34:39.584Z,23.63
2016-07-11T13:35:39.769Z,23.62
2016-07-11T13:36:39.584Z,23.7
2016-07-11T13:37:39.566Z,23.78
2016-07-11T13:38:39.564Z,23.84
2016-07-11T13:39:39.558Z,23.9
2016-07-11T13:40:39.558Z,23.85
2016-07-11T13:41:39.570Z,23.9
2016-07-11T13:42:39.559Z,24.02
2016-07-11T13:43:39.548Z,24
2016-07-11T13:44:39.560Z,24.08
2016-07-11T13:45:39.748Z,23.99
2016-07-11T13:46:39.739Z,24.12
2016-07-11T13:47:39.553Z,24.11
2016-07-11T13:48:39.541Z,24.09
2016-07-11T13:49:39.546Z,24.22
2016-07-11T13:50:39.541Z,24.11
2016-07-11T13:51:39.539Z,24.21
2016-07-11T13:52:39.537Z,24.17
2016-07-11T13:53:39.539Z,24.24
2016-07-11T13:54:39.534Z,24.18
2016-07-11T13:55:39.529Z,24.3
2016-07-11T13:56:39.534Z,24.34
2016-07-11T13:57:39.527Z,24.32
2016-07-11T13:58:39.533Z,24.37
2016-07-11T13:59:39.532Z,24.49
2016-07-11T14:00:39.731Z,24.46
2016-07-11T14:01:39.536Z,24.56
2016-07-11T14:02:39.527Z,24.51
2016-07-11T14:03:39.535Z,24.51
2016-07-11T14:04:39.528Z,24.51
2016-07-11T14:05:39.527Z,24.63
2016-07-11T14:06:39.541Z,24.61
2016-07-11T14:07:39.534Z,24.58
2016-07-11T14:08:39.530Z,24.61
2016-07-11T14:09:39.728Z,24.7
2016-07-11T14:10:39.528Z,24.63
2016-07-11T14:11:39.525Z,24.74
2016-07-11T14:12:39.535Z,24.75
2016-07-11T14:13:39.533Z,24.74
2016-07-11T14:14:39.532Z,24.7
2016-07-11T14:15:39.541Z,24.64
2016-07-11T14:16:39.532Z,24.75
2016-07-11T14:17:39.529Z,24.67
2016-07-11T14:18:39.528Z,24.69
2016-07-11T14:19:39.532Z,24.75
2016-07-11T14:20:39.533Z,24.7
2016-07-11T14:21:39.535Z,24.74
2016-07-11T14:22:39.760Z,24.75
2016-07-11T14:23:39.897Z,24.78
2016-07-11T14:24:40.002Z,24.74
2016-07-11T14:25:39.738Z,24.85
2016-07-11T14:26:40.095Z,24.87
2016-07-11T14:27:39.633Z,24.85
2016-07-11T14:28:39.826Z,24.93
2016-07-11T14:29:39.820Z,24.87
2016-07-11T14:30:39.775Z,24.93
2016-07-11T14:31:39.953Z,24.94
2016-07-11T14:32:39.890Z,24.93
2016-07-11T14:33:39.926Z,24.89
2016-07-11T14:34:40.058Z,25.01
2016-07-11T14:35:40.052Z,25.01
2016-07-11T14:36:39.574Z,25.05
2016-07-11T14:37:39.582Z,25.08
2016-07-11T14:38:39.555Z,25.09
2016-07-11T14:39:39.558Z,25.07
2016-07-11T14:40:39.704Z,25.08
2016-07-11T14:41:39.712Z,25.14
2016-07-11T14:42:39.711Z,25.08
2016-07-11T14:43:39.715Z,25.05
2016-07-11T14:44:39.787Z,25.04
2016-07-11T14:45:39.721Z,25.11
2016-07-11T14:46:39.730Z,25.14
2016-07-11T14:47:40.035Z,25.12
2016-07-11T14:48:40.087Z,25.15
2016-07-11T14:49:40.181Z,25.17
2016-07-11T14:50:40.251Z,25.14
2016-07-11T14:51:40.154Z,25.24
2016-07-11T14:52:40.185Z,25.14
2016-07-11T14:53:40.199Z,25.14
2016-07-11T14:54:39.568Z,25.15
2016-07-11T14:55:39.565Z,25.15
2016-07-11T14:56:39.577Z,25.15
2016-07-11T14:57:39.814Z,25.19
2016-07-11T14:58:39.777Z,25.17
2016-07-11T14:59:39.588Z,25.17
2016-07-11T15:00:39.575Z,25.2
2016-07-11T15:01:39.794Z,25.2
2016-07-11T15:02:39.587Z,25.17
2016-07-11T15:03:39.792Z,25.14
2016-07-11T15:04:39.787Z,25.14
2016-07-11T15:05:39.590Z,25.22
2016-07-11T15:06:39.585Z,25.12
2016-07-11T15:07:39.590Z,25.19
2016-07-11T15:08:39.586Z,25.17
2016-07-11T15:09:39.608Z,25.26
2016-07-11T15:10:39.791Z,25.32
2016-07-11T15:11:39.584Z,25.26
2016-07-11T15:12:39.595Z,25.3
2016-07-11T15:13:39.594Z,25.27
2016-07-11T15:14:39.603Z,25.3
2016-07-11T15:15:39.595Z,25.41
2016-07-11T15:16:39.802Z,25.34
2016-07-11T15:17:39.607Z,25.32
2016-07-11T15:18:39.604Z,25.3
2016-07-11T15:19:39.608Z,25.42
2016-07-11T15:20:39.605Z,25.39
2016-07-11T15:21:39.609Z,25.27
2016-07-11T15:22:39.617Z,25.32
2016-07-11T15:23:39.616Z,25.33
2016-07-11T15:24:39.607Z,25.32
2016-07-11T15:25:39.675Z,25.37
2016-07-11T15:26:39.618Z,25.27
2016-07-11T15:27:39.615Z,25.33
2016-07-11T15:28:39.616Z,25.3
2016-07-11T15:29:39.615Z,25.37
2016-07-11T15:30:39.634Z,25.34
2016-07-11T15:31:39.625Z,25.11
2016-07-11T15:32:39.627Z,25.24
2016-07-11T15:33:39.915Z,25.33
2016-07-11T15:34:40.006Z,25.32
2016-07-11T15:35:39.931Z,25.33
2016-07-11T15:36:40.101Z,25.34
2016-07-11T15:37:39.632Z,25.39
2016-07-11T15:38:39.625Z,25.33
2016-07-11T15:39:40.262Z,25.33
2016-07-11T15:40:40.070Z,25.32
2016-07-11T15:41:39.982Z,25.42
2016-07-11T15:42:39.633Z,25.42
2016-07-11T15:43:39.637Z,25.49
2016-07-11T15:44:39.637Z,25.42
2016-07-11T15:45:39.645Z,25.45
2016-07-11T15:46:40.009Z,25.44
2016-07-11T15:47:40.189Z,25.44
2016-07-11T15:48:40.020Z,25.47
2016-07-11T15:49:39.644Z,25.44
2016-07-11T15:50:40.438Z,25.39
2016-07-11T15:51:39.872Z,25.44
2016-07-11T15:52:39.785Z,25.52
2016-07-11T15:53:39.650Z,25.56
2016-07-11T15:54:39.664Z,25.51
2016-07-11T15:55:39.656Z,25.52
2016-07-11T15:56:39.658Z,25.6
2016-07-11T15:57:39.852Z,25.51
2016-07-11T15:58:39.656Z,25.51
2016-07-11T15:59:39.864Z,25.54
2016-07-11T16:00:39.665Z,25.52
2016-07-11T16:01:39.668Z,25.49
2016-07-11T16:02:39.677Z,25.57
2016-07-11T16:03:39.682Z,25.6
2016-07-11T16:04:39.685Z,25.56
2016-07-11T16:05:39.882Z,25.6
2016-07-11T16:06:39.673Z,25.7
2016-07-11T16:07:39.682Z,25.64
2016-07-11T16:08:39.671Z,25.71
2016-07-11T16:09:39.682Z,25.62
2016-07-11T16:10:39.691Z,25.56
2016-07-11T16:11:39.679Z,25.54
2016-07-11T16:12:39.882Z,25.6
2016-07-11T16:13:39.682Z,25.6
2016-07-11T16:14:39.684Z,25.6
2016-07-11T16:15:39.701Z,25.64
2016-07-11T16:16:39.891Z,25.69
2016-07-11T16:17:39.694Z,25.54
2016-07-11T16:18:39.691Z,25.62
2016-07-11T16:19:39.889Z,25.59
2016-07-11T16:20:39.700Z,25.6
2016-07-11T16:21:39.697Z,25.52
2016-07-11T16:22:39.703Z,25.57
2016-07-11T16:23:39.703Z,25.7
2016-07-11T16:24:39.700Z,25.54
2016-07-11T16:25:39.707Z,25.69
2016-07-11T16:26:39.705Z,25.71
2016-07-11T16:27:39.709Z,25.57
2016-07-11T16:28:39.899Z,25.71
2016-07-11T16:29:40.118Z,25.71
2016-07-11T16:30:40.253Z,25.7
2016-07-11T16:31:40.123Z,25.69
2016-07-11T16:32:39.938Z,25.67
2016-07-11T16:33:39.752Z,25.7
2016-07-11T16:34:39.750Z,25.69
2016-07-11T16:35:40.115Z,25.7
2016-07-11T16:36:39.764Z,25.69
2016-07-11T16:37:40.230Z,25.67
2016-07-11T16:38:40.028Z,25.66
2016-07-11T16:39:40.260Z,25.7
2016-07-11T16:40:40.114Z,25.75
2016-07-11T16:41:40.226Z,25.57
2016-07-11T16:42:40.034Z,25.66
2016-07-11T16:43:40.100Z,25.69
2016-07-11T16:44:39.737Z,25.69
2016-07-11T16:45:39.732Z,25.74
2016-07-11T16:46:39.733Z,25.56
2016-07-11T16:47:39.741Z,25.6
2016-07-11T16:48:39.935Z,25.62
2016-07-11T16:49:39.739Z,25.62
2016-07-11T16:50:39.742Z,25.59
2016-07-11T16:51:39.743Z,25.59
2016-07-11T16:52:39.750Z,25.62
2016-07-11T16:53:39.754Z,25.62
2016-07-11T16:54:39.740Z,25.71
2016-07-11T16:55:39.749Z,25.75
2016-07-11T16:56:39.749Z,25.7
2016-07-11T16:57:39.956Z,25.66
2016-07-11T16:58:39.764Z,25.71
2016-07-11T16:59:39.756Z,25.7
2016-07-11T17:00:39.759Z,25.71
2016-07-11T17:01:40.167Z,25.74
2016-07-11T17:02:40.158Z,25.71
2016-07-11T17:03:39.779Z,25.71
2016-07-11T17:04:39.762Z,25.6
2016-07-11T17:05:39.774Z,25.74
2016-07-11T17:06:39.771Z,25.69
2016-07-11T17:07:39.770Z,25.75
2016-07-11T17:08:39.770Z,25.71
2016-07-11T17:09:39.777Z,25.69
2016-07-11T17:10:39.771Z,25.74
2016-07-11T17:11:39.776Z,25.69
2016-07-11T17:12:39.780Z,25.7
2016-07-11T17:13:39.779Z,25.64
2016-07-11T17:14:39.788Z,25.7
2016-07-11T17:15:39.977Z,25.75
2016-07-11T17:16:39.782Z,25.7
2016-07-11T17:17:39.786Z,25.69
2016-07-11T17:18:39.790Z,25.74
2016-07-11T17:19:39.790Z,25.56
2016-07-11T17:20:39.796Z,25.75
2016-07-11T17:21:39.793Z,25.75
2016-07-11T17:22:39.794Z,25.74
2016-07-11T17:23:39.794Z,25.69
2016-07-11T17:24:39.805Z,25.7
2016-07-11T17:25:39.804Z,25.78
2016-07-11T17:26:39.798Z,25.74
2016-07-11T17:27:39.812Z,25.67
2016-07-11T17:28:39.804Z,25.7
2016-07-11T17:29:39.811Z,25.69
2016-07-11T17:30:39.803Z,25.81
2016-07-11T17:31:39.831Z,25.81
2016-07-11T17:32:40.017Z,25.71
2016-07-11T17:33:39.818Z,25.76
2016-07-11T17:34:39.819Z,25.79
2016-07-11T17:35:39.823Z,25.75
2016-07-11T17:36:40.028Z,25.76
2016-07-11T17:37:39.826Z,25.84
2016-07-11T17:38:39.829Z,25.81
2016-07-11T17:39:39.829Z,25.78
2016-07-11T17:40:39.828Z,25.69
2016-07-11T17:41:40.363Z,25.84
2016-07-11T17:42:39.999Z,25.7
2016-07-11T17:43:40.410Z,25.85
2016-07-11T17:44:40.235Z,25.75
2016-07-11T17:45:40.388Z,25.84
2016-07-11T17:46:40.013Z,25.78
2016-07-11T17:47:40.065Z,25.84
2016-07-11T17:48:39.855Z,25.79
2016-07-11T17:49:40.191Z,25.81
2016-07-11T17:50:40.113Z,25.91
2016-07-11T17:51:40.510Z,25.93
2016-07-11T17:52:39.957Z,25.96
2016-07-11T17:53:40.024Z,25.91
2016-07-11T17:54:39.856Z,25.91
2016-07-11T17:55:39.865Z,25.93
2016-07-11T17:56:39.870Z,25.91
2016-07-11T17:57:40.084Z,25.99
2016-07-11T17:58:39.866Z,25.96
2016-07-11T17:59:39.876Z,26
2016-07-11T18:00:40.078Z,26.01
2016-07-11T18:01:39.878Z,25.99
2016-07-11T18:02:39.875Z,26
2016-07-11T18:03:39.877Z,26.06
2016-07-11T18:04:39.886Z,26.04
2016-07-11T18:05:39.887Z,26.07
2016-07-11T18:06:39.898Z,25.99
2016-07-11T18:07:39.886Z,26.04
2016-07-11T18:08:39.890Z,26.04
2016-07-11T18:09:39.892Z,26.07
2016-07-11T18:10:39.899Z,26.19
2016-07-11T18:11:39.909Z,26.19
2016-07-11T18:12:39.903Z,26.17
2016-07-11T18:13:39.914Z,26.19
2016-07-11T18:14:39.913Z,26.15
2016-07-11T18:15:40.111Z,26.19
2016-07-11T18:16:39.915Z,26.16
2016-07-11T18:17:39.918Z,26.17
2016-07-11T18:18:39.913Z,26.17
2016-07-11T18:19:39.919Z,26.16
2016-07-11T18:20:39.929Z,26.19
2016-07-11T18:21:39.932Z,26.19
2016-07-11T18:22:39.936Z,26.2
2016-07-11T18:23:39.939Z,26.19
2016-07-11T18:24:39.934Z,26.2
2016-07-11T18:25:39.941Z,26.2
2016-07-11T18:26:39.938Z,26.23
2016-07-11T18:27:39.944Z,26.23
2016-07-11T18:28:39.939Z,26.19
2016-07-11T18:29:39.962Z,26.22
2016-07-11T18:30:39.954Z,26.17
2016-07-11T18:31:39.954Z,26.16
2016-07-11T18:32:39.954Z,26.17
2016-07-11T18:33:39.966Z,26.04
2016-07-11T18:34:39.962Z,26.07
2016-07-11T18:35:39.985Z,26.03
2016-07-11T18:36:39.979Z,26.06
2016-07-11T18:37:39.975Z,26.04
2016-07-11T18:38:39.973Z,26.03
2016-07-11T18:39:39.977Z,26.04
2016-07-11T18:40:39.987Z,26.09
2016-07-11T18:41:39.989Z,26
2016-07-11T18:42:39.986Z,26.11
2016-07-11T18:43:39.983Z,26.04
2016-07-11T18:44:39.995Z,26.04
2016-07-11T18:45:39.996Z,26.03
2016-07-11T18:46:39.996Z,26.07
2016-07-11T18:47:39.999Z,26.01
2016-07-11T18:48:40.003Z,25.89
2016-07-11T18:49:40.006Z,25.96
2016-07-11T18:50:40.008Z,25.94
2016-07-11T18:51:41.260Z,25.88
2016-07-11T18:52:40.014Z,25.86
2016-07-11T18:53:40.022Z,25.81
2016-07-11T18:54:40.022Z,25.82
2016-07-11T18:55:40.418Z,25.69
2016-07-11T18:56:40.023Z,25.71
2016-07-11T18:57:40.019Z,25.81
2016-07-11T18:58:40.225Z,25.7
2016-07-11T18:59:40.026Z,25.67
2016-07-11T19:00:40.024Z,25.7
2016-07-11T19:01:40.028Z,25.66
2016-07-11T19:02:40.034Z,25.75
2016-07-11T19:03:40.035Z,25.67
2016-07-11T19:04:40.040Z,25.75
2016-07-11T19:05:40.037Z,25.74
